createdAt,value
2016-06-17T08:06:27.150Z,97839
2016-06-17T08:06:46.544Z,97857
2016-06-17T08:07:06.263Z,97841
2016-06-17T08:07:28.684Z,97846
2016-06-17T08:07:48.312Z,97846
2016-06-17T08:08:11.000Z,97846
2016-06-17T08:08:34.078Z,97849
2016-06-17T08:08:56.754Z,97836
2016-06-17T08:09:18.988Z,97836
2016-06-17T08:09:44.601Z,97846
2016-06-17T08:10:04.319Z,97833
2016-06-17T08:10:23.632Z,97846
2016-06-17T08:10:46.495Z,97844
2016-06-17T08:11:11.714Z,97844
2016-06-17T08:11:31.933Z,97844
2016-06-17T08:12:02.093Z,97849
2016-06-17T08:12:24.640Z,97836
2016-06-17T08:12:38.986Z,97846
2016-06-17T08:12:58.251Z,97844
2016-06-17T08:13:20.392Z,97848
2016-06-17T08:13:42.974Z,97841
2016-06-17T08:14:08.177Z,97845
2016-06-17T08:14:30.289Z,97851
2016-06-17T08:14:49.430Z,97848
2016-06-17T08:15:15.711Z,97848
2016-06-17T08:15:38.450Z,97843
2016-06-17T08:16:03.793Z,97845
2016-06-17T08:16:31.093Z,97845
2016-06-17T08:16:57.546Z,97851
2016-06-17T08:17:22.046Z,97848
2016-06-17T08:17:48.316Z,97856
2016-06-17T08:18:12.347Z,97859
2016-06-17T08:18:36.508Z,97848
2016-06-17T08:19:04.992Z,97862
2016-06-17T08:19:26.679Z,97862
2016-06-17T08:19:50.557Z,97862
2016-06-17T08:20:12.714Z,97856
2016-06-17T08:20:34.873Z,97856
2016-06-17T08:21:01.232Z,97850
2016-06-17T08:21:30.451Z,97864
2016-06-17T08:21:56.518Z,97853
2016-06-17T08:22:15.752Z,97853
2016-06-17T08:22:34.924Z,97856
2016-06-17T08:22:54.146Z,97859
2016-06-17T08:23:14.974Z,97856
2016-06-17T08:23:37.821Z,97856
2016-06-17T08:24:03.493Z,97856
2016-06-17T08:24:22.993Z,97850
2016-06-17T08:24:48.184Z,97856
2016-06-17T08:25:08.449Z,97864
2016-06-17T08:25:28.153Z,97861
2016-06-17T08:25:52.157Z,97858
2016-06-17T08:26:16.688Z,97864
2016-06-17T08:26:40.222Z,97858
2016-06-17T08:27:00.191Z,97858
2016-06-17T08:27:25.253Z,97846
2016-06-17T08:27:50.757Z,97861
2016-06-17T08:28:16.742Z,97852
2016-06-17T08:28:42.932Z,97842
2016-06-17T08:28:59.167Z,97852
2016-06-17T08:29:24.651Z,97858
2016-06-17T08:29:47.171Z,97849
2016-06-17T08:30:09.936Z,97852
2016-06-17T08:30:29.186Z,97852
2016-06-17T08:30:51.517Z,97852
2016-06-17T08:31:13.799Z,97858
2016-06-17T08:31:29.986Z,97863
2016-06-17T09:16:05.407Z,97928
2016-06-17T09:16:29.892Z,97931
2016-06-17T09:16:43.892Z,97931
2016-06-17T09:17:02.865Z,97911
2016-06-17T09:17:18.599Z,97923
2016-06-17T09:17:32.599Z,97931
2016-06-17T09:17:49.036Z,97923
2016-06-17T09:24:01.129Z,97934
2016-06-17T09:24:18.988Z,97931
2016-06-17T09:24:33.941Z,97923
2016-06-17T09:24:49.741Z,97937
2016-06-17T09:25:07.257Z,97934
2016-06-17T09:25:22.928Z,97935
2016-06-17T09:25:37.913Z,97923
2016-06-17T09:26:03.370Z,97926
2016-06-17T09:26:17.057Z,97932
2016-06-17T09:26:33.917Z,97929
2016-06-17T09:26:47.901Z,97932
2016-06-17T09:27:02.015Z,97937
2016-06-17T09:27:19.390Z,97923
2016-06-17T09:27:33.390Z,97932
2016-06-17T09:27:51.236Z,97923
2016-06-17T09:28:07.924Z,97924
2016-06-17T09:28:22.236Z,97938
2016-06-17T09:28:38.783Z,97923
2016-06-17T09:28:57.115Z,97929
2016-06-17T09:29:14.693Z,97929
2016-06-17T09:29:29.412Z,97929
2016-06-17T09:29:44.365Z,97932
2016-06-17T09:30:11.165Z,97943
2016-06-17T09:30:29.775Z,97943
2016-06-17T09:30:45.368Z,97943
2016-06-17T09:31:02.012Z,97946
2016-06-17T09:31:19.934Z,97935
2016-06-17T09:31:34.949Z,97935
2016-06-17T09:31:57.360Z,97938
2016-06-17T09:32:15.782Z,97941
2016-06-17T09:32:30.735Z,97947
2016-06-17T09:32:54.157Z,97944
2016-06-17T09:33:09.457Z,97941
2016-06-17T09:33:23.536Z,97941
2016-06-17T09:33:40.536Z,97930
2016-06-17T09:33:57.364Z,97935
2016-06-17T09:34:11.570Z,97941
2016-06-17T09:34:25.289Z,97944
2016-06-17T09:34:39.523Z,97950
2016-06-17T09:34:56.789Z,97947
2016-06-17T09:35:10.496Z,97944
2016-06-17T09:35:24.168Z,97947
2016-06-17T09:35:38.605Z,97950
2016-06-17T09:35:53.933Z,97941
2016-06-17T09:36:08.030Z,97947
2016-06-17T09:36:25.186Z,97944
2016-06-17T09:36:40.233Z,97938
2016-06-17T09:36:55.014Z,97947
2016-06-17T09:37:18.689Z,97955
2016-06-17T09:37:40.502Z,97944
2016-06-17T09:37:56.486Z,97947
2016-06-17T16:58:49.551Z,98171
2016-06-17T16:59:04.191Z,98164
2016-06-17T16:59:20.910Z,98163
2016-06-17T16:59:37.429Z,98172
2016-06-17T16:59:55.257Z,98171
2016-06-17T17:00:12.663Z,98156
2016-06-17T17:00:30.100Z,98162
2016-06-17T17:00:49.105Z,98158
2016-06-17T17:01:10.684Z,98158
2016-06-17T17:01:24.402Z,98161
2016-06-17T17:01:39.093Z,98146
2016-06-17T17:01:55.890Z,98154
2016-06-17T17:02:11.577Z,98156
2016-06-17T17:02:26.062Z,98155
2016-06-17T17:02:40.487Z,98151
2016-06-17T17:02:55.925Z,98156
2016-06-17T17:03:11.816Z,98150
2016-06-17T17:03:29.503Z,98152
2016-06-17T17:03:47.788Z,98149
2016-06-17T17:04:05.413Z,98138
2016-06-17T17:04:22.054Z,98155
2016-06-17T17:04:39.165Z,98146
2016-06-17T17:04:56.134Z,98148
2016-06-17T17:05:13.650Z,98145
2016-06-17T17:05:30.681Z,98154
2016-06-17T17:05:44.310Z,98151
2016-06-17T17:05:58.341Z,98146
2016-06-17T17:06:11.935Z,98151
2016-06-17T17:06:26.076Z,98143
2016-06-17T17:06:43.610Z,98155
2016-06-17T17:06:58.594Z,98143
2016-06-17T17:07:12.844Z,98143
2016-06-17T17:07:26.641Z,98141
2016-06-17T17:07:40.364Z,98150
2016-06-17T17:07:56.958Z,98138
2016-06-17T17:08:10.645Z,98144
2016-06-17T17:08:27.239Z,98141
2016-06-17T17:08:40.977Z,98129
2016-06-17T17:08:57.587Z,98131
2016-06-17T17:09:14.180Z,98131
2016-06-17T17:09:30.790Z,98134
2016-06-17T17:09:47.886Z,98133
2016-06-17T17:10:04.543Z,98139
2016-06-17T17:10:24.074Z,98130
2016-06-17T17:10:41.812Z,98138
2016-06-17T17:10:58.765Z,98135
2016-06-17T17:11:12.437Z,98146
2016-06-17T17:11:29.078Z,98134
2016-06-17T17:11:46.221Z,98142
2016-06-17T17:12:04.142Z,98148
2016-06-17T17:12:22.080Z,98139
2016-06-17T17:12:38.553Z,98127
2016-06-17T17:12:56.521Z,98135
2016-06-17T17:13:10.350Z,98149
2016-06-17T17:13:27.803Z,98149
2016-06-17T17:13:42.525Z,98149
2016-06-17T17:13:59.166Z,98137
2016-06-17T17:14:16.025Z,98143
2016-06-17T17:14:33.466Z,98131
2016-06-17T17:14:50.466Z,98151
2016-06-17T17:15:07.700Z,98143
2016-06-17T17:15:26.294Z,98137
2016-06-17T17:15:46.407Z,98143
2016-06-17T17:15:59.907Z,98140
2016-06-17T17:16:13.486Z,98132
2016-06-17T17:16:31.642Z,98126
2016-06-17T17:16:48.129Z,98129
2016-06-17T17:49:50.369Z,98160
2016-06-17T17:50:10.057Z,98160
2016-06-17T17:50:26.885Z,98163
2016-06-17T17:50:43.418Z,98155
2016-06-17T17:50:56.840Z,98165
2016-06-17T17:51:16.402Z,98157
2016-06-17T17:51:29.918Z,98152
2016-06-17T17:51:46.485Z,98155
2016-06-17T17:52:06.031Z,98157
2016-06-17T17:52:25.422Z,98146
2016-06-17T17:52:42.050Z,98157
2016-06-17T17:53:00.034Z,98152
2016-06-17T17:53:15.113Z,98152
2016-06-17T17:53:32.097Z,98155
2016-06-17T17:53:51.820Z,98155
2016-06-17T17:54:11.742Z,98141
2016-06-17T17:54:29.648Z,98152
2016-06-17T17:54:46.605Z,98155
2016-06-17T17:55:03.871Z,98152
2016-06-17T17:55:22.042Z,98157
2016-06-17T17:55:45.046Z,98143
2016-06-17T17:56:04.546Z,98159
2016-06-17T17:56:27.515Z,98152
2016-06-17T17:56:44.536Z,98156
2016-06-17T17:57:04.551Z,98159
2016-06-17T17:57:21.067Z,98156
2016-06-17T17:57:37.525Z,98159
2016-06-17T17:57:58.135Z,98152
2016-06-17T17:58:18.166Z,98159
2016-06-17T17:58:37.828Z,98156
2016-06-17T17:59:00.359Z,98165
2016-06-17T17:59:13.953Z,98162
2016-06-17T17:59:34.364Z,98162
2016-06-17T17:59:56.724Z,98159
2016-06-17T18:00:16.083Z,98159
2016-06-17T18:00:37.619Z,98156
2016-06-17T18:01:01.072Z,98165
2016-06-17T18:01:20.432Z,98162
2016-06-17T18:01:44.265Z,98159
2016-06-17T18:02:03.734Z,98154
2016-06-17T18:02:28.421Z,98165
2016-06-17T18:02:47.705Z,98162
2016-06-17T18:03:12.252Z,98156
2016-06-17T18:03:35.117Z,98156
2016-06-17T18:03:57.789Z,98171
2016-06-17T18:04:20.726Z,98168
2016-06-17T18:04:44.418Z,98165
2016-06-17T18:05:06.730Z,98171
2016-06-17T18:05:23.308Z,98168
2016-06-17T18:05:43.265Z,98174
2016-06-17T18:06:05.953Z,98168
2016-06-17T18:06:26.093Z,98171
2016-06-17T18:06:48.832Z,98171
2016-06-17T18:07:09.176Z,98171
2016-06-17T18:07:26.347Z,98174
2016-06-17T18:07:48.586Z,98177
2016-06-17T18:08:08.851Z,98171
2016-06-17T18:08:32.039Z,98168
2016-06-17T18:08:51.776Z,98168
2016-06-17T18:09:11.667Z,98168
2016-06-17T18:09:31.823Z,98169
2016-06-17T18:09:55.046Z,98174
2016-06-17T18:10:14.827Z,98169
2016-06-17T18:10:31.765Z,98171
2016-06-17T18:10:49.160Z,98183
2016-06-17T18:11:09.176Z,98172
2016-06-17T18:11:32.051Z,98175
